Terminal Aerodrome Forecast
Issued by NWS

Home | Current Version | Previous Version | Text Only | Print | Product List | Glossary Off
Versions: 1 2 3 4 5 6 7 8 9 10 11 12 13 14 15 16 17

000
FTUS43 KIWX 120500
TAFSBN
TAF
KSBN 120538Z 1206/1306 02006KT P6SM OVC035
      TEMPO 1207/1210 OVC028
     FM121400 04008KT P6SM BKN035
     FM130400 02010KT 5SM -SHRA BR OVC020=

USA.gov is the U.S. government's official web portal to all federal, state and local government web resources and services.